Time;durP1;ratioP1;P1;durP2;ratioP2;P2;SDS_P1;SDS_P2;PMS_P1;PMS_P2;Temp;Humidity;BMP_temperature;BMP_pressure;BME280_temperature;BME280_humidity;BME280_pressure;Samples;Min_cycle;Max_cycle;Signal;HPM_P1;HPM_P2
2022/03/03 00:00:15;;;;;;;10.77;9.20;;;11.80;82.60;;;12.76;40.39;101592.22;4858715;28;116957;-82
2022/03/03 00:02:43;;;;;;;14.23;12.60;;;11.80;77.00;;;12.74;39.46;101592.28;4854588;28;97790;-81
2022/03/03 00:05:09;;;;;;;6.70;6.10;;;11.60;75.10;;;12.72;40.76;101598.50;4841741;28;111943;-81
2022/03/03 00:07:36;;;;;;;13.63;12.17;;;11.60;85.30;;;12.70;38.61;101598.53;4845341;28;97421;-81
2022/03/03 00:10:04;;;;;;;6.37;5.67;;;11.70;71.90;;;12.86;40.69;101608.66;4851885;28;100800;-81
2022/03/03 00:12:30;;;;;;;16.40;12.70;;;11.90;84.90;;;12.72;39.08;101602.00;4839797;28;106209;-81
2022/03/03 00:14:56;;;;;;;9.27;7.63;;;11.90;72.10;;;12.89;40.26;101600.66;4865322;28;110149;-82
2022/03/03 00:17:22;;;;;;;7.23;6.47;;;12.00;80.30;;;12.76;40.25;101600.16;4848265;28;98528;-81
2022/03/03 00:19:48;;;;;;;9.50;8.43;;;11.80;82.00;;;12.86;39.79;101595.44;4863062;28;118087;-82
2022/03/03 00:22:15;;;;;;;7.70;6.97;;;12.00;76.30;;;12.87;40.23;101597.16;4848515;28;97487;-81
2022/03/03 00:24:42;;;;;;;8.27;7.37;;;11.90;77.50;;;12.81;40.14;101599.09;4868345;28;98620;-81
2022/03/03 00:27:09;;;;;;;14.97;12.77;;;11.70;78.40;;;12.74;39.74;101599.34;4833152;28;98314;-82
2022/03/03 00:29:35;;;;;;;7.80;6.57;;;11.60;76.20;;;12.74;40.54;101596.69;4855520;28;97388;-82
2022/03/03 00:32:00;;;;;;;10.87;8.87;;;11.50;79.40;;;12.71;40.47;101597.63;4848425;28;97485;-82
2022/03/03 00:34:26;;;;;;;10.63;9.53;;;11.50;77.40;;;12.64;40.55;101590.78;4845779;28;129282;-82
2022/03/03 00:36:52;;;;;;;13.40;11.80;;;11.30;76.70;;;12.55;40.42;101590.19;4849706;28;98395;-82
2022/03/03 00:39:18;;;;;;;10.37;8.90;;;11.20;76.80;;;12.42;40.97;101593.19;4854220;28;117685;-81
2022/03/03 00:41:44;;;;;;;12.43;10.33;;;11.00;77.40;;;12.41;40.98;101587.94;4832145;28;116282;-81
2022/03/03 00:44:10;;;;;;;7.33;6.63;;;10.90;78.50;;;12.39;41.08;101590.63;4845685;28;98906;-82
2022/03/03 00:46:40;;;;;;;8.17;7.37;;;11.00;84.00;;;12.41;41.14;101593.22;4827396;28;100443;-81
2022/03/03 00:49:07;;;;;;;14.60;12.30;;;11.10;78.30;;;12.43;40.42;101596.69;4853184;28;97161;-81
2022/03/03 00:51:33;;;;;;;7.23;6.37;;;11.10;77.40;;;12.41;41.19;101582.63;4844327;28;97407;-82
2022/03/03 00:53:58;;;;;;;7.77;6.90;;;11.10;81.80;;;12.45;40.94;101589.59;4847508;28;98921;-81
2022/03/03 00:56:24;;;;;;;7.67;6.87;;;11.20;79.20;;;12.49;41.04;101585.94;4858242;28;126360;-81
2022/03/03 00:58:50;;;;;;;6.83;6.03;;;11.20;81.60;;;12.57;41.12;101591.88;4831894;28;117855;-81
2022/03/03 01:01:17;;;;;;;14.60;12.67;;;11.40;84.10;;;12.64;40.03;101584.63;4861991;28;96858;-81
2022/03/03 01:03:42;;;;;;;7.30;6.50;;;11.60;77.00;;;12.62;40.84;101582.03;4855505;28;114008;-81
2022/03/03 01:06:10;;;;;;;14.10;12.30;;;11.40;82.80;;;12.70;39.52;101579.16;4882164;28;127973;-82
2022/03/03 01:08:37;;;;;;;8.23;6.43;;;11.50;77.80;;;12.69;40.84;101566.81;4840140;28;97428;-81
2022/03/03 01:11:05;;;;;;;9.60;8.20;;;11.50;81.50;;;12.67;40.92;101580.09;4856000;28;97517;-82
2022/03/03 01:13:30;;;;;;;14.33;9.93;;;11.40;80.00;;;12.67;40.78;101574.81;4862144;28;101185;-82
2022/03/03 01:15:56;;;;;;;15.03;10.83;;;11.30;78.70;;;12.58;40.67;101585.66;4855312;28;103097;-81
2022/03/03 01:18:23;;;;;;;12.30;9.93;;;11.20;79.00;;;12.48;41.04;101584.22;4855899;28;107800;-82
2022/03/03 01:20:49;;;;;;;14.40;12.27;;;11.00;79.70;;;12.42;40.98;101579.09;4841450;28;97887;-82
2022/03/03 01:23:16;;;;;;;15.33;12.13;;;10.90;80.50;;;12.31;41.05;101571.47;4868738;28;103447;-81
2022/03/03 01:25:41;;;;;;;8.30;7.43;;;10.80;79.70;;;12.29;41.46;101572.41;4839272;28;98796;-82
2022/03/03 01:28:07;;;;;;;8.07;6.90;;;10.80;82.00;;;12.31;41.33;101571.47;4841796;28;119689;-81
2022/03/03 01:30:34;;;;;;;8.43;7.60;;;10.90;82.40;;;12.37;41.32;101571.28;4846873;28;118021;-82
2022/03/03 01:32:59;;;;;;;7.80;7.00;;;11.00;81.10;;;12.40;41.22;101578.25;4852847;28;98268;-82
2022/03/03 01:35:25;;;;;;;7.90;6.83;;;11.00;82.10;;;12.45;41.22;101574.59;4855289;28;98377;-82
2022/03/03 01:37:51;;;;;;;16.67;12.83;;;11.20;83.00;;;12.48;40.45;101568.34;4855511;28;97075;-81
2022/03/03 01:40:22;;;;;;;9.33;8.10;;;11.30;77.60;;;12.38;41.27;101561.56;4856694;28;97143;-81
2022/03/03 01:42:53;;;;;;;13.80;11.20;;;11.00;78.80;;;12.30;41.27;101560.94;4848065;28;98516;-81
2022/03/03 01:45:18;;;;;;;13.43;11.97;;;10.80;78.90;;;12.24;41.18;101551.38;4842538;28;106352;-82
2022/03/03 01:47:44;;;;;;;9.07;6.67;;;10.80;79.60;;;12.33;41.43;101552.91;4846606;28;119460;-81
2022/03/03 01:50:10;;;;;;;9.77;8.47;;;11.00;84.90;;;12.33;41.29;101548.47;4852223;28;97421;-82
2022/03/03 01:52:36;;;;;;;13.53;12.13;;;11.00;80.30;;;12.30;41.22;101553.00;4852517;28;119585;-81
2022/03/03 01:55:02;;;;;;;9.10;7.00;;;10.90;79.40;;;12.16;41.61;101556.91;4850600;28;126309;-81
2022/03/03 01:57:29;;;;;;;12.37;10.60;;;10.70;81.70;;;12.16;41.30;101551.63;4858026;28;97604;-81
2022/03/03 01:59:55;;;;;;;11.60;10.40;;;10.70;79.10;;;12.12;41.45;101551.72;4847149;28;97526;-82
2022/03/03 02:02:21;;;;;;;12.87;11.47;;;10.60;79.40;;;12.06;41.52;101550.13;4845144;28;100683;-81
2022/03/03 02:04:47;;;;;;;13.67;11.13;;;10.50;80.60;;;11.98;41.51;101552.09;4824230;28;99704;-82
2022/03/03 02:07:13;;;;;;;11.17;9.57;;;10.40;80.80;;;11.97;41.82;101547.72;4851238;28;97380;-80
2022/03/03 02:09:41;;;;;;;13.33;10.83;;;10.40;80.80;;;11.87;42.16;101543.59;4850866;28;115898;-81
2022/03/03 02:12:08;;;;;;;11.20;9.37;;;10.30;82.70;;;11.81;42.17;101541.13;4846406;28;98563;-81
2022/03/03 02:14:46;;;;;;;13.20;11.03;;;10.20;81.10;;;11.79;41.62;101540.28;4849878;28;102986;-82
2022/03/03 02:17:12;;;;;;;14.80;11.63;;;10.20;81.40;;;11.78;41.89;101539.41;4851903;28;102401;-81
2022/03/03 02:19:38;;;;;;;9.50;8.47;;;10.30;82.10;;;11.68;42.57;101543.19;4857799;28;97873;-81
2022/03/03 02:22:05;;;;;;;9.63;8.17;;;10.10;83.80;;;11.79;42.34;101540.28;4844908;28;99346;-82
2022/03/03 02:24:31;;;;;;;8.10;7.30;;;10.30;82.30;;;11.77;42.46;101531.50;4833610;28;126904;-81
2022/03/03 02:27:01;;;;;;;12.77;10.17;;;10.30;84.40;;;11.86;42.05;101526.88;4841764;28;121943;-81
2022/03/03 02:29:28;;;;;;;14.20;10.53;;;10.50;80.70;;;11.83;42.02;101529.59;4870740;28;96999;-81
2022/03/03 02:31:54;;;;;;;9.70;8.57;;;10.40;81.10;;;11.76;42.04;101519.19;4861676;28;112044;-81
2022/03/03 02:34:20;;;;;;;10.63;8.33;;;10.30;81.00;;;11.80;42.25;101520.88;4867703;28;104330;-81
2022/03/03 02:36:46;;;;;;;8.47;7.57;;;10.30;85.90;;;11.93;42.16;101521.41;4842987;28;98750;-81
2022/03/03 02:39:12;;;;;;;8.00;7.20;;;10.60;86.20;;;12.26;41.58;101519.59;4855228;28;97513;-82
2022/03/03 02:41:38;;;;;;;7.80;7.00;;;11.30;87.40;;;12.55;40.84;101522.25;4860797;28;99596;-82
2022/03/03 02:44:05;;;;;;;7.07;6.40;;;11.90;84.60;;;12.95;40.08;101513.06;4870044;28;98870;-81
2022/03/03 02:46:31;;;;;;;7.03;6.33;;;12.50;82.90;;;13.34;39.31;101514.47;4854731;28;100211;-81
2022/03/03 02:48:57;;;;;;;7.47;6.60;;;13.10;80.80;;;13.70;38.51;101516.75;4844245;28;97507;-82
2022/03/03 02:51:23;;;;;;;7.03;6.33;;;13.60;79.00;;;13.97;38.13;101505.16;4854145;28;121645;-81
2022/03/03 02:53:50;;;;;;;7.77;6.97;;;14.00;78.00;;;14.19;37.61;101499.09;4834833;28;111795;-81
2022/03/03 02:56:16;;;;;;;7.63;6.83;;;14.30;76.90;;;14.38;36.94;101493.94;4839885;28;98453;-82
2022/03/03 02:58:42;;;;;;;8.83;6.60;;;14.50;75.90;;;14.53;36.87;101494.25;4859666;28;117719;-81
2022/03/03 03:01:09;;;;;;;8.93;7.27;;;14.60;76.20;;;14.66;36.30;101504.41;4851747;28;98714;-81
2022/03/03 03:03:35;;;;;;;7.40;6.30;;;14.70;74.70;;;14.69;36.49;101498.97;4852312;28;99967;-82
2022/03/03 03:06:01;;;;;;;7.50;6.70;;;14.80;72.20;;;14.68;36.58;101498.09;4833214;28;97065;-82
2022/03/03 03:08:27;;;;;;;7.40;6.67;;;14.60;74.80;;;14.63;36.63;101500.06;4870397;28;97574;-82
2022/03/03 03:10:53;;;;;;;6.77;6.10;;;14.50;74.50;;;14.62;36.72;101505.44;4840593;28;126854;-81
2022/03/03 03:13:19;;;;;;;7.17;6.47;;;14.40;75.00;;;14.58;36.91;101494.91;4851842;28;126847;-81
2022/03/03 03:15:46;;;;;;;6.70;6.00;;;14.30;75.20;;;14.54;36.76;101497.78;4846677;28;104152;-81
2022/03/03 03:18:16;;;;;;;6.80;6.10;;;14.20;76.10;;;14.54;36.98;101493.31;4857857;28;97806;-81
2022/03/03 03:20:44;;;;;;;7.83;7.03;;;14.20;76.60;;;14.47;36.94;101491.84;4863812;28;100999;-82
2022/03/03 03:23:14;;;;;;;7.93;6.07;;;14.10;72.90;;;14.40;37.17;101490.28;4856666;28;109757;-82
2022/03/03 03:25:43;;;;;;;9.53;8.47;;;13.90;75.20;;;14.27;37.28;101491.69;4837488;28;103830;-81
2022/03/03 03:28:10;;;;;;;9.27;8.37;;;13.60;70.70;;;14.12;37.52;101492.25;4856547;28;97546;-81
2022/03/03 03:30:36;;;;;;;8.43;6.57;;;13.30;72.00;;;13.93;37.91;101487.63;4832129;28;101507;-82
2022/03/03 03:33:03;;;;;;;8.67;7.30;;;12.90;75.40;;;13.75;38.31;101493.63;4856208;28;107880;-82
2022/03/03 03:35:29;;;;;;;9.53;8.07;;;12.60;75.50;;;13.64;38.35;101490.47;4846429;28;97593;-81
2022/03/03 03:37:55;;;;;;;8.90;7.90;;;12.40;75.80;;;13.50;38.70;101492.72;4823611;28;102921;-81
2022/03/03 03:40:21;;;;;;;6.97;6.27;;;12.30;76.40;;;13.40;39.11;101485.09;4850435;28;98021;-81
2022/03/03 03:42:47;;;;;;;6.63;5.77;;;12.20;78.90;;;13.31;39.10;101485.41;4847533;28;126934;-81
2022/03/03 03:45:14;;;;;;;8.80;7.43;;;12.10;80.30;;;13.27;39.09;101483.78;4853758;28;97191;-82
2022/03/03 03:47:41;;;;;;;7.73;6.90;;;12.10;77.40;;;13.16;39.33;101477.06;4836162;28;97533;-81
2022/03/03 03:50:09;;;;;;;8.80;7.90;;;12.00;78.90;;;13.14;39.28;101482.41;4842296;28;100248;-82
2022/03/03 03:52:37;;;;;;;7.67;6.90;;;11.90;77.90;;;13.10;39.38;101478.13;4843063;28;104238;-82
2022/03/03 03:55:05;;;;;;;8.00;7.10;;;11.90;78.90;;;13.10;39.37;101483.44;4856386;28;97473;-82
2022/03/03 03:57:31;;;;;;;7.03;6.30;;;12.00;76.60;;;13.07;39.62;101480.91;4839530;28;98449;-82
2022/03/03 03:59:57;;;;;;;9.67;8.67;;;11.90;79.20;;;13.06;39.45;101479.16;4846426;28;104088;-82
2022/03/03 04:02:23;;;;;;;9.10;7.33;;;11.90;76.50;;;12.98;39.34;101478.53;4843043;28;99742;-82
2022/03/03 04:04:48;;;;;;;9.67;7.90;;;11.80;74.30;;;12.86;39.64;101474.50;4853855;28;97389;-82
2022/03/03 04:07:14;;;;;;;10.67;8.87;;;11.50;76.60;;;12.75;39.90;101469.56;4848671;28;97467;-80
2022/03/03 04:09:40;;;;;;;7.23;6.60;;;11.40;76.50;;;12.62;40.17;101459.41;4854329;28;99056;-82
2022/03/03 04:12:07;;;;;;;9.10;7.77;;;11.20;77.30;;;12.52;40.49;101464.13;4852016;28;127781;-81
2022/03/03 04:14:33;;;;;;;7.53;6.57;;;11.00;79.10;;;12.49;40.62;101461.56;4841486;28;101377;-81
2022/03/03 04:16:59;;;;;;;8.83;7.73;;;11.00;79.40;;;12.45;40.55;101462.59;4855712;28;97634;-82
2022/03/03 04:19:26;;;;;;;10.43;9.13;;;11.00;79.20;;;12.35;40.82;101455.84;4838801;28;125241;-81
2022/03/03 04:21:52;;;;;;;8.23;7.10;;;10.90;79.10;;;12.30;41.10;101463.06;4844296;28;98620;-81
2022/03/03 04:24:17;;;;;;;6.93;6.33;;;10.80;79.90;;;12.28;41.10;101459.56;4857372;28;98371;-81
2022/03/03 04:26:43;;;;;;;6.93;6.20;;;10.80;81.00;;;12.37;40.89;101454.88;4817838;28;112461;-82
2022/03/03 04:29:09;;;;;;;7.50;6.70;;;11.10;85.90;;;12.46;40.70;101461.66;4834215;28;126624;-81
2022/03/03 04:31:34;;;;;;;6.77;6.03;;;11.30;77.20;;;12.38;40.95;101461.03;4838571;28;123939;-82
2022/03/03 04:34:01;;;;;;;9.43;7.30;;;11.10;80.10;;;12.36;40.93;101469.00;4854528;28;98347;-81
2022/03/03 04:36:27;;;;;;;9.20;7.53;;;11.10;79.40;;;12.31;41.27;101459.50;4849433;28;97305;-82
2022/03/03 04:38:54;;;;;;;7.73;6.93;;;10.90;80.70;;;12.30;41.03;101463.91;4862814;28;103369;-82
2022/03/03 04:41:20;;;;;;;9.37;7.30;;;10.90;81.40;;;12.32;40.85;101461.22;4868469;28;104457;-83
2022/03/03 04:43:46;;;;;;;11.90;10.17;;;11.00;79.10;;;12.21;40.44;101457.13;4850609;28;116527;-82
2022/03/03 04:46:12;;;;;;;9.73;8.07;;;10.80;78.20;;;12.09;41.15;101454.81;4841655;28;97133;-82
2022/03/03 04:48:38;;;;;;;8.77;7.63;;;10.60;79.20;;;12.03;41.36;101449.72;4831723;28;100587;-82
2022/03/03 04:51:05;;;;;;;9.37;7.27;;;10.50;80.20;;;11.96;41.23;101460.50;4846647;28;98958;-82
2022/03/03 04:53:31;;;;;;;13.03;10.40;;;10.40;79.50;;;11.88;41.30;101451.03;4837549;28;97580;-83
2022/03/03 04:55:58;;;;;;;10.30;8.47;;;10.30;79.80;;;11.84;41.76;101448.50;4845171;28;101093;-81
2022/03/03 04:58:25;;;;;;;12.50;9.83;;;10.30;79.40;;;11.82;41.67;101437.09;4835580;28;99483;-82
2022/03/03 05:00:51;;;;;;;7.77;6.73;;;10.20;79.80;;;11.80;42.21;101431.00;4835794;28;98511;-82
2022/03/03 05:03:17;;;;;;;7.43;6.40;;;10.20;82.70;;;11.84;42.00;101422.06;4842445;28;97410;-82
2022/03/03 05:05:43;;;;;;;7.90;6.23;;;10.40;83.50;;;11.96;41.90;101427.00;4829363;28;97591;-82
2022/03/03 05:08:09;;;;;;;7.23;6.13;;;10.60;83.90;;;12.08;41.62;101425.78;4849338;28;128288;-82
2022/03/03 05:10:35;;;;;;;9.00;6.97;;;10.90;84.70;;;12.15;41.53;101422.94;4839661;28;103053;-82
2022/03/03 05:13:01;;;;;;;7.57;6.43;;;11.00;79.50;;;12.11;41.49;101413.31;4851759;28;97399;-82
2022/03/03 05:15:28;;;;;;;13.07;9.80;;;10.80;80.10;;;12.11;41.19;101415.97;4834738;28;97073;-82
2022/03/03 05:17:54;;;;;;;8.17;7.03;;;10.80;79.40;;;12.07;41.57;101414.34;4865546;28;97853;-81
2022/03/03 05:20:20;;;;;;;7.23;6.50;;;10.60;80.80;;;12.09;41.54;101423.09;4857333;28;98226;-82
2022/03/03 05:22:46;;;;;;;8.03;6.53;;;10.60;81.70;;;12.14;41.52;101413.22;4861917;28;103210;-81
2022/03/03 05:25:11;;;;;;;6.80;6.10;;;10.80;83.20;;;12.17;41.33;101405.22;4855521;28;113204;-82
2022/03/03 05:27:40;;;;;;;6.50;5.80;;;10.90;81.80;;;12.27;40.95;101412.84;4830520;28;130056;-82
2022/03/03 05:30:07;;;;;;;8.97;6.80;;;11.00;81.50;;;12.33;40.96;101410.03;4854245;28;98716;-82
2022/03/03 05:32:35;;;;;;;10.20;7.43;;;11.10;81.40;;;12.31;40.85;101409.22;4826504;28;97544;-83
2022/03/03 05:35:04;;;;;;;6.60;5.90;;;11.00;78.40;;;12.27;41.21;101415.50;4843745;28;97167;-81
2022/03/03 05:37:30;;;;;;;15.57;9.77;;;10.90;78.60;;;12.13;41.05;101419.44;4841234;28;99194;-82
2022/03/03 05:39:56;;;;;;;9.87;8.43;;;10.70;78.60;;;12.04;41.32;101414.44;4823767;28;103886;-82
2022/03/03 05:42:24;;;;;;;8.00;7.07;;;10.50;79.30;;;11.95;41.63;101413.84;4848664;28;111241;-80
2022/03/03 05:44:51;;;;;;;10.13;7.40;;;10.40;79.70;;;11.92;41.73;101412.16;4839472;28;97437;-81
2022/03/03 05:47:17;;;;;;;7.90;6.00;;;10.40;79.10;;;11.87;41.82;101409.66;4844191;28;98558;-82
2022/03/03 05:49:45;;;;;;;10.37;7.63;;;10.30;81.80;;;11.82;41.91;101416.81;4858809;28;98965;-82
2022/03/03 05:52:13;;;;;;;13.23;10.03;;;10.30;79.70;;;11.72;41.95;101412.69;4850739;28;97554;-82
2022/03/03 05:54:40;;;;;;;17.87;12.30;;;10.20;81.10;;;11.68;41.23;101418.09;4833618;28;97284;-82
2022/03/03 05:57:43;;;;;;;12.57;8.40;;;10.10;80.10;;;11.70;42.19;101413.63;4861929;28;97968;-82
2022/03/03 06:00:14;;;;;;;9.27;7.20;;;10.10;82.20;;;11.65;42.19;101410.25;4855744;28;102934;-82
2022/03/03 06:02:52;;;;;;;22.73;9.50;;;10.10;81.50;;;11.59;42.24;101412.19;4840832;28;97535;-82
2022/03/03 06:05:26;;;;;;;14.30;8.53;;;10.00;82.50;;;11.59;42.30;101406.03;4827848;28;97458;-82
2022/03/03 06:08:05;;;;;;;8.10;5.87;;;10.00;82.50;;;11.68;42.21;101394.31;4831720;28;99469;-82
2022/03/03 06:10:42;;;;;;;13.00;8.13;;;10.10;84.10;;;11.70;42.10;101403.91;4849351;28;97841;-84
2022/03/03 06:13:24;;;;;;;17.63;10.20;;;10.30;83.00;;;11.71;42.12;101412.72;4854248;28;98525;-82
2022/03/03 06:15:52;;;;;;;23.30;10.90;;;10.20;81.10;;;11.62;41.53;101406.78;4852462;28;104055;-82
2022/03/03 06:18:24;;;;;;;23.03;11.77;;;10.00;78.50;;;11.51;41.36;101414.16;4854155;28;112146;-82
2022/03/03 06:20:51;;;;;;;29.47;13.83;;;9.90;78.70;;;11.34;40.84;101416.38;4867047;28;98122;-82
2022/03/03 06:23:19;;;;;;;28.57;12.27;;;9.60;78.80;;;11.17;40.71;101413.34;4871122;28;98926;-81
2022/03/03 06:25:48;;;;;;;19.50;12.00;;;9.50;78.10;;;10.89;40.70;101416.66;4828920;28;97507;-81
2022/03/03 06:28:14;;;;;;;15.67;9.97;;;9.20;77.50;;;10.77;43.37;101409.06;4855447;28;98795;-81
2022/03/03 06:30:40;;;;;;;14.87;9.07;;;9.00;82.00;;;10.82;43.52;101417.72;4839428;28;115883;-81
2022/03/03 06:33:06;;;;;;;16.30;9.77;;;9.20;83.60;;;10.90;43.33;101425.44;4858259;28;97476;-82
2022/03/03 06:35:35;;;;;;;15.73;9.80;;;9.30;83.30;;;10.93;43.10;101431.50;4849881;28;97803;-81
2022/03/03 06:38:04;;;;;;;16.07;10.03;;;9.30;82.90;;;10.87;43.31;101420.25;4829322;28;98946;-81
2022/03/03 06:40:30;;;;;;;9.10;6.63;;;9.20;83.20;;;10.89;43.75;101423.72;4850269;28;98005;-82
2022/03/03 06:43:00;;;;;;;11.23;7.73;;;9.30;84.10;;;10.91;43.47;101422.78;4844704;28;97043;-81
2022/03/03 06:45:30;;;;;;;14.07;8.33;;;9.30;83.40;;;10.94;43.60;101425.31;4865105;28;98384;-81
2022/03/03 06:47:58;;;;;;;12.13;8.10;;;9.30;84.60;;;11.02;43.54;101426.03;4840164;28;104267;-81
2022/03/03 06:50:24;;;;;;;15.63;8.77;;;9.50;84.10;;;11.09;43.38;101425.84;4853289;28;98808;-81
2022/03/03 06:52:52;;;;;;;12.80;8.07;;;9.50;83.10;;;11.12;43.18;101425.75;4839990;28;119788;-81
2022/03/03 06:55:28;;;;;;;15.73;10.20;;;9.50;83.00;;;11.05;42.80;101425.06;4828682;28;99164;-81
2022/03/03 06:57:57;;;;;;;10.40;7.93;;;9.40;82.90;;;11.01;42.55;101420.78;4828241;28;99070;-81
2022/03/03 07:00:26;;;;;;;8.60;7.30;;;9.30;82.80;;;11.10;43.39;101431.09;4839219;28;102540;-81
2022/03/03 07:02:53;;;;;;;13.37;9.20;;;9.40;84.00;;;11.14;43.03;101434.50;4850081;28;97089;-82
2022/03/03 07:05:20;;;;;;;25.23;11.87;;;9.50;82.40;;;11.14;42.93;101439.78;4849398;28;98644;-81
2022/03/03 07:07:49;;;;;;;18.37;10.47;;;9.50;83.10;;;11.09;42.28;101442.56;4837056;28;97595;-82
2022/03/03 07:10:23;;;;;;;19.47;12.70;;;9.40;80.70;;;10.99;42.35;101436.66;4852994;28;103851;-81
2022/03/03 07:12:55;;;;;;;14.23;9.83;;;9.30;82.00;;;10.98;43.43;101434.03;4863655;28;97778;-81
2022/03/03 07:15:25;;;;;;;14.73;8.90;;;9.30;84.70;;;10.96;43.67;101427.94;4838884;28;98053;-81
2022/03/03 07:18:09;;;;;;;12.70;9.87;;;9.30;84.40;;;10.99;43.31;101428.75;4850347;28;100538;-81
2022/03/03 07:20:59;;;;;;;18.20;11.87;;;9.30;85.30;;;11.01;43.05;101434.84;4846154;28;97446;-81
2022/03/03 07:23:38;;;;;;;13.67;10.33;;;9.30;84.30;;;10.96;42.36;101420.88;4868367;28;97387;-81
2022/03/03 07:26:10;;;;;;;13.40;9.17;;;9.30;84.50;;;10.96;43.21;101434.06;4851164;28;97566;-81
2022/03/03 07:28:40;;;;;;;11.97;7.70;;;9.30;85.00;;;10.99;43.67;101430.47;4808053;28;98728;-81
2022/03/03 07:31:07;;;;;;;10.63;8.70;;;9.40;85.20;;;11.03;43.63;101430.38;4838338;28;97757;-81
2022/03/03 07:33:55;;;;;;;17.37;11.83;;;9.40;86.80;;;11.06;43.11;101433.84;4844217;28;97521;-82
2022/03/03 07:36:40;;;;;;;18.27;9.63;;;9.50;84.20;;;11.05;43.42;101432.13;4868417;28;97278;-82
2022/03/03 07:39:11;;;;;;;15.60;9.87;;;9.40;85.40;;;11.13;43.24;101438.06;4844768;28;103041;-81
2022/03/03 07:41:36;;;;;;;12.67;8.80;;;9.50;84.60;;;11.16;43.12;101446.78;4817080;28;97694;-82
2022/03/03 07:44:02;;;;;;;11.57;7.37;;;9.60;85.10;;;11.22;43.27;101443.13;4842289;28;115519;-81
2022/03/03 07:46:29;;;;;;;9.10;6.93;;;9.70;85.60;;;11.27;43.14;101446.50;4844440;28;97655;-81
2022/03/03 07:48:55;;;;;;;11.30;7.77;;;9.70;86.30;;;11.30;42.84;101446.44;4845286;28;117439;-81
2022/03/03 07:51:23;;;;;;;12.63;9.77;;;9.80;84.40;;;11.35;42.71;101441.88;4849090;28;97736;-81
2022/03/03 07:53:49;;;;;;;11.70;8.67;;;9.90;84.40;;;11.34;42.67;101445.44;4851785;28;97509;-81
2022/03/03 07:56:28;;;;;;;14.93;11.47;;;9.80;83.80;;;11.28;41.21;101440.31;4837293;28;98666;-81
2022/03/03 07:59:05;;;;;;;20.60;12.80;;;9.80;82.50;;;11.17;41.52;101445.88;4854365;28;99069;-81
2022/03/03 08:01:34;;;;;;;17.63;12.67;;;9.70;83.00;;;11.01;41.22;101440.13;4835356;28;99084;-84
2022/03/03 08:04:01;;;;;;;16.87;13.10;;;9.50;82.30;;;10.94;41.24;101443.81;4842795;28;97502;-81
2022/03/03 08:06:28;;;;;;;16.17;11.97;;;9.40;81.50;;;10.86;42.83;101440.50;4846276;28;97438;-81
2022/03/03 08:08:55;;;;;;;15.77;11.23;;;9.40;82.20;;;10.92;43.39;101442.97;4832444;28;98205;-81
2022/03/03 08:11:24;;;;;;;12.57;9.67;;;9.50;83.40;;;11.03;43.07;101456.78;4852198;28;127600;-81
2022/03/03 08:13:52;;;;;;;14.63;11.67;;;9.70;82.60;;;10.97;42.65;101446.38;4853124;28;120181;-81
2022/03/03 08:16:21;;;;;;;15.87;10.63;;;9.70;80.80;;;11.08;43.10;101442.59;4836437;28;97894;-81
2022/03/03 08:18:48;;;;;;;10.27;8.43;;;9.80;84.20;;;11.23;43.09;101453.63;4856999;28;98239;-81
2022/03/03 08:21:15;;;;;;;9.17;8.20;;;9.90;84.40;;;11.35;42.87;101451.59;4837437;28;98646;-81
2022/03/03 08:23:43;;;;;;;8.90;6.60;;;10.10;83.40;;;11.48;42.68;101440.66;4839830;28;99194;-82
2022/03/03 08:26:12;;;;;;;9.13;6.50;;;10.30;84.30;;;11.70;42.29;101451.50;4861679;28;97479;-81
2022/03/03 08:28:39;;;;;;;8.50;6.13;;;10.70;85.00;;;11.92;41.71;101435.94;4839590;28;98283;-81
2022/03/03 08:31:08;;;;;;;7.90;6.33;;;11.00;86.50;;;12.23;41.02;101442.97;4876116;28;97418;-81
2022/03/03 08:33:56;;;;;;;7.07;5.70;;;11.50;84.10;;;12.50;40.80;101439.50;4827874;28;97241;-82
2022/03/03 08:36:34;;;;;;;6.33;5.67;;;11.90;84.20;;;12.86;39.99;101437.44;4852701;28;97514;-81
2022/03/03 08:39:06;;;;;;;7.30;5.87;;;12.50;82.80;;;13.40;38.77;101444.47;4840420;28;102454;-82
2022/03/03 08:41:36;;;;;;;7.17;5.70;;;13.20;80.80;;;13.74;38.17;101444.13;4834360;28;97569;-81
2022/03/03 08:44:05;;;;;;;7.37;5.70;;;13.70;78.90;;;14.05;37.39;101435.06;4847334;28;97164;-82
2022/03/03 08:46:37;;;;;;;7.63;5.60;;;14.10;77.50;;;14.32;36.85;101431.34;4834830;28;97820;-83
2022/03/03 08:49:06;;;;;;;6.93;6.00;;;14.50;76.30;;;14.53;36.33;101435.84;4835158;28;118972;-81
2022/03/03 08:51:32;;;;;;;8.07;6.50;;;14.70;75.90;;;14.74;36.25;101443.84;4835636;28;105079;-82
2022/03/03 08:53:58;;;;;;;6.07;5.47;;;14.90;74.40;;;14.86;35.66;101438.06;4872742;28;97534;-82
2022/03/03 08:56:25;;;;;;;6.60;5.70;;;15.10;73.60;;;15.00;35.28;101434.84;4806493;28;97699;-82
2022/03/03 08:58:52;;;;;;;7.83;6.40;;;15.20;73.10;;;15.10;34.95;101437.03;4837957;28;103805;-82
2022/03/03 09:01:18;;;;;;;6.73;6.03;;;15.40;72.20;;;15.19;34.88;101441.13;4867371;28;98630;-82
2022/03/03 09:03:44;;;;;;;6.13;5.50;;;15.40;71.30;;;15.21;34.70;101446.38;4832844;28;107314;-82
2022/03/03 09:06:17;;;;;;;12.63;10.07;;;15.30;69.10;;;15.24;34.65;101439.13;4845529;28;104477;-82
2022/03/03 09:08:44;;;;;;;6.37;5.00;;;15.30;70.50;;;15.24;35.16;101438.25;4868362;28;97705;-82
2022/03/03 09:11:10;;;;;;;6.33;5.63;;;15.40;72.30;;;15.31;34.60;101439.72;4852757;28;99875;-81
2022/03/03 09:13:36;;;;;;;14.67;6.73;;;15.50;71.60;;;15.38;34.86;101451.81;4844348;28;117659;-82
2022/03/03 09:16:03;;;;;;;11.00;5.47;;;15.70;71.60;;;15.44;34.65;101444.44;4860496;28;99150;-82
2022/03/03 09:18:29;;;;;;;9.03;5.77;;;15.80;71.10;;;15.47;34.58;101446.09;4871568;28;98800;-82
2022/03/03 09:20:55;;;;;;;7.63;6.33;;;15.80;70.90;;;15.50;34.25;101435.34;4839468;28;130458;-81
2022/03/03 09:23:20;;;;;;;8.73;6.63;;;15.80;70.20;;;15.56;33.97;101439.50;4843640;28;105540;-82
2022/03/03 09:25:46;;;;;;;7.53;6.60;;;15.90;69.70;;;15.66;33.63;101431.09;4848210;28;116855;-81
2022/03/03 09:28:12;;;;;;;8.13;6.47;;;15.90;68.70;;;15.69;33.33;101430.09;4863191;28;127261;-82
2022/03/03 09:30:38;;;;;;;9.70;6.20;;;16.00;66.60;;;15.70;33.16;101427.38;4852071;28;97444;-81
2022/03/03 09:33:05;;;;;;;9.80;6.87;;;16.00;68.40;;;15.74;32.59;101431.59;4848755;28;97107;-81
2022/03/03 09:35:31;;;;;;;11.87;10.33;;;15.90;64.20;;;15.67;32.75;101422.19;4866099;28;99474;-82
2022/03/03 09:37:58;;;;;;;7.47;6.70;;;15.80;60.80;;;15.53;33.51;101419.25;4847369;28;115798;-82
2022/03/03 09:40:24;;;;;;;9.87;8.57;;;15.40;67.80;;;15.25;30.90;101410.75;4859949;28;97262;-82
2022/03/03 09:43:06;;;;;;;10.00;8.50;;;15.00;60.80;;;14.96;33.82;101406.66;4835630;28;97926;-81
2022/03/03 09:45:34;;;;;;;7.33;5.90;;;14.50;65.70;;;14.93;34.73;101402.34;4866752;28;97857;-82
2022/03/03 09:48:05;;;;;;;12.87;10.73;;;14.40;72.30;;;14.95;33.44;101404.94;4843419;28;100009;-81
2022/03/03 09:50:32;;;;;;;9.63;8.63;;;14.60;66.10;;;15.04;34.36;101400.09;4851887;28;98184;-82
2022/03/03 09:52:58;;;;;;;9.70;7.13;;;14.90;68.50;;;15.10;34.16;101398.97;4861696;28;98222;-82
2022/03/03 09:55:25;;;;;;;12.07;10.40;;;15.00;67.90;;;14.86;33.56;101390.25;4859777;28;118060;-82
2022/03/03 09:57:51;;;;;;;14.97;12.80;;;14.70;63.40;;;14.53;28.51;101388.06;4837421;28;110766;-82
2022/03/03 10:00:18;;;;;;;14.13;12.63;;;14.20;59.50;;;14.36;29.01;101394.94;4859495;28;97239;-81
2022/03/03 10:03:08;;;;;;;7.00;5.63;;;13.90;60.10;;;14.57;35.71;101394.97;4831909;28;97515;-82
2022/03/03 10:05:47;;;;;;;13.37;11.40;;;14.20;74.30;;;14.54;35.15;101395.09;4843972;28;97273;-82
2022/03/03 10:08:17;;;;;;;8.53;6.50;;;14.30;65.90;;;14.56;35.63;101401.19;4857336;28;102482;-81
2022/03/03 10:10:47;;;;;;;12.97;10.47;;;14.20;72.30;;;14.64;34.75;101410.66;4857587;28;99045;-81